Terminal Aerodrome Forecast
Issued by NWS

Home | Current Version | Previous Version | Text Only | Print | Product List | Glossary On
Versions: 1 2 3 4 5 6 7 8 9 10 11 12 13 14 15 16 17 18
181
FTUS45 KPSR 301934 AAB
TAFBLH
TAF AMD
KBLH 301934Z 3020/0118 33012G20KT P6SM VCTS SCT080CB BKN100
      TEMPO 3020/3024 04012KT BKN070CB OVC090
     FM010300 33008KT P6SM SCT080=

USA.gov is the U.S. government's official web portal to all federal, state and local government web resources and services.